Harris, Minnesota
Current Conditions -  °F | °C
As of 3:14 AM on Thursday 23 Oct 2014 (Local Time) from KROS Reporting Station
Overcast Overcast  
Wind Chill: 52°   Ceiling: 1800
Heat Index: 52°   Visibility: 10mi
Dew Point: 43°   Wind: 5mph
Humidity: 72%   Direction: 170°S
Pressure: 29.99"   Gusts: NA
Location:  45.59°N, 92.97°W
Report Text: KROS 230814Z AUTO 17004KT 10SM OVC018 11/06 A2999 RMK AO2 T01090060
Loading
Personal Weather Stations






























Interactive Weather Map
Tropical Storm Tracking
New forecast layout! Learn more

10-Day Weather Forecast

Advertisements
Track Severe Weather on mobile